createdAt,value
2019-05-28T00:06:30.543Z,13.10
2019-05-28T00:16:35.215Z,12.82
2019-05-28T00:26:40.222Z,12.62
2019-05-28T00:36:44.686Z,12.44
2019-05-28T00:46:50.572Z,12.25
2019-05-28T00:56:56.264Z,12.08
2019-05-28T01:07:01.057Z,11.95
2019-05-28T01:17:05.514Z,11.85
2019-05-28T01:27:10.397Z,11.74
2019-05-28T01:37:15.226Z,11.66
2019-05-28T01:47:19.582Z,11.55
2019-05-28T01:57:24.027Z,11.46
2019-05-28T02:07:28.465Z,11.42
2019-05-28T02:17:33.087Z,11.39
2019-05-28T02:27:37.460Z,11.36
2019-05-28T02:37:42.069Z,11.42
2019-05-28T02:47:46.490Z,11.56
2019-05-28T02:57:51.294Z,11.68
2019-05-28T03:07:55.851Z,11.77
2019-05-28T03:18:03.181Z,11.85
2019-05-28T03:28:07.625Z,11.88
2019-05-28T03:38:13.741Z,11.93
2019-05-28T03:48:18.367Z,12.06
2019-05-28T03:58:23.806Z,12.12
2019-05-28T04:08:28.189Z,12.23
2019-05-28T04:18:32.657Z,12.31
2019-05-28T04:28:37.555Z,12.48
2019-05-28T04:38:42.578Z,12.62
2019-05-28T04:48:46.971Z,12.81
2019-05-28T04:58:51.704Z,13.01
2019-05-28T05:08:56.900Z,13.25
2019-05-28T05:19:01.289Z,13.41
2019-05-28T05:29:05.765Z,13.54
2019-05-28T05:39:10.462Z,13.55
2019-05-28T05:49:15.117Z,13.84
2019-05-28T05:59:20.558Z,14.04
2019-05-28T06:09:25.233Z,14.15
2019-05-28T06:19:29.664Z,14.26
2019-05-28T06:29:34.597Z,14.43
2019-05-28T06:39:39.463Z,14.44
2019-05-28T06:49:44.293Z,14.49
2019-05-28T06:59:48.807Z,14.53
2019-05-28T07:09:53.644Z,14.56
2019-05-28T07:19:58.303Z,14.59
2019-05-28T07:30:03.514Z,14.61
2019-05-28T07:40:30.349Z,14.75
2019-05-28T07:50:22.422Z,14.93
2019-05-28T08:00:39.049Z,15.12
2019-05-28T08:10:45.538Z,15.35
2019-05-28T08:20:49.989Z,15.60
2019-05-28T08:30:54.753Z,15.80
2019-05-28T08:41:00.102Z,15.91
2019-05-28T08:51:04.634Z,15.88
2019-05-28T09:01:09.613Z,16.01
2019-05-28T09:11:14.602Z,16.19
2019-05-28T09:21:19.465Z,16.26
2019-05-28T09:31:24.289Z,16.38
2019-05-28T09:41:28.836Z,16.56
2019-05-28T09:51:33.737Z,16.70
2019-05-28T10:01:38.818Z,16.88
2019-05-28T10:11:44.257Z,16.96
2019-05-28T10:21:49.239Z,16.96
2019-05-28T10:31:54.296Z,17.01
2019-05-28T10:41:59.232Z,17.04
2019-05-28T10:52:04.209Z,16.90
2019-05-28T11:02:08.661Z,16.79
2019-05-28T11:12:13.785Z,16.74
2019-05-28T11:22:18.784Z,16.66
2019-05-28T11:32:24.621Z,16.66
2019-05-28T11:42:29.077Z,16.86
2019-05-28T11:52:33.968Z,17.04
2019-05-28T12:02:40.507Z,17.27
2019-05-28T12:12:45.796Z,17.57
2019-05-28T12:23:08.903Z,17.73
2019-05-28T12:32:56.816Z,17.80
2019-05-28T12:43:01.438Z,17.77
2019-05-28T12:53:06.416Z,17.82
2019-05-28T13:03:11.357Z,17.89
2019-05-28T13:13:15.864Z,17.99
2019-05-28T13:23:20.293Z,18.16
2019-05-28T13:33:25.174Z,18.12
2019-05-28T13:43:30.287Z,17.82
2019-05-28T13:53:35.132Z,17.51
2019-05-28T14:03:41.698Z,17.51
2019-05-28T14:13:46.828Z,17.53
2019-05-28T14:23:51.792Z,17.29
2019-05-28T14:33:56.629Z,17.17
2019-05-28T14:44:01.247Z,17.12
2019-05-28T14:54:05.732Z,17.14
2019-05-28T15:04:10.704Z,17.11
2019-05-28T15:14:15.489Z,17.06
2019-05-28T15:24:20.058Z,17.00
2019-05-28T15:34:24.489Z,17.01
2019-05-28T15:44:30.961Z,16.99
2019-05-28T15:54:35.642Z,16.99
2019-05-28T16:04:40.273Z,16.95
2019-05-28T16:14:47.801Z,16.80
2019-05-28T16:24:52.508Z,16.47
2019-05-28T16:34:57.208Z,16.13
2019-05-28T16:45:04.307Z,15.82
2019-05-28T16:55:16.686Z,15.65
2019-05-28T17:05:21.219Z,15.45
2019-05-28T17:15:26.253Z,15.31
2019-05-28T17:25:31.307Z,15.23
2019-05-28T17:35:36.227Z,15.13
2019-05-28T17:45:41.031Z,14.99
2019-05-28T17:55:48.708Z,14.87
2019-05-28T18:05:55.338Z,14.78
2019-05-28T18:16:00.501Z,14.65
2019-05-28T18:26:06.878Z,14.53
2019-05-28T18:36:13.067Z,14.39
2019-05-28T18:46:18.740Z,14.29
2019-05-28T18:56:23.436Z,14.15
2019-05-28T19:06:28.083Z,13.94
2019-05-28T19:16:33.170Z,13.68
2019-05-28T19:26:37.956Z,13.50
2019-05-28T19:36:42.915Z,13.38
2019-05-28T19:46:47.949Z,13.21
2019-05-28T19:56:53.093Z,13.14
2019-05-28T20:06:57.685Z,13.05
2019-05-28T20:17:02.673Z,12.97
2019-05-28T20:27:07.575Z,12.86
2019-05-28T20:37:12.701Z,12.77
2019-05-28T20:47:17.289Z,12.69
2019-05-28T20:55:48.465Z,12.72
2019-05-28T20:56:18.560Z,12.66
2019-05-28T20:56:49.813Z,12.68
2019-05-28T20:57:17.516Z,12.69
2019-05-28T20:57:47.059Z,12.70
2019-05-28T20:58:16.193Z,12.72
2019-05-28T20:58:45.071Z,12.71
2019-05-28T20:59:13.626Z,12.73
2019-05-28T20:59:42.000Z,12.75
2019-05-28T21:00:11.399Z,12.78
2019-05-28T21:00:40.272Z,12.79
2019-05-28T21:01:21.239Z,12.88
2019-05-28T21:01:49.682Z,12.85
2019-05-28T21:02:19.866Z,12.86
2019-05-28T21:02:49.589Z,12.88
2019-05-28T21:03:18.559Z,12.91
2019-05-28T21:03:47.804Z,12.92
2019-05-28T21:04:17.285Z,12.94
2019-05-28T21:04:46.252Z,12.96
2019-05-28T21:05:15.532Z,12.97
2019-05-28T21:05:43.948Z,13.00
2019-05-28T21:06:14.084Z,13.01
2019-05-28T21:06:43.290Z,13.03
2019-05-28T21:07:11.922Z,13.05
2019-05-28T21:07:40.583Z,13.06
2019-05-28T21:08:09.510Z,13.09
2019-05-28T21:08:38.673Z,13.11
2019-05-28T21:09:08.059Z,13.12
2019-05-28T21:09:37.146Z,13.14
2019-05-28T21:10:06.862Z,13.15
2019-05-28T21:10:35.893Z,13.18
2019-05-28T21:11:05.239Z,13.20
2019-05-28T21:11:34.908Z,13.22
2019-05-28T21:12:05.438Z,13.23
2019-05-28T21:12:43.740Z,13.24
2019-05-28T21:13:08.184Z,13.27
2019-05-28T21:13:36.853Z,13.28
2019-05-28T21:14:05.847Z,13.30
2019-05-28T21:14:36.695Z,13.30
2019-05-28T21:15:10.013Z,13.33
2019-05-28T21:15:38.533Z,13.34
2019-05-28T21:16:07.348Z,13.36
2019-05-28T21:16:35.953Z,13.37
2019-05-28T21:17:05.644Z,13.38
2019-05-28T21:17:33.943Z,13.39
2019-05-28T21:18:03.054Z,13.40
2019-05-28T21:18:32.948Z,13.41
2019-05-28T21:19:01.812Z,13.43
2019-05-28T21:19:30.091Z,13.44
2019-05-28T21:19:59.541Z,13.45
2019-05-28T21:20:28.084Z,13.46
2019-05-28T21:20:57.643Z,13.47
2019-05-28T21:21:26.591Z,13.49
2019-05-28T21:21:55.725Z,13.51
2019-05-28T21:22:26.997Z,13.52
2019-05-28T21:22:55.856Z,13.52
2019-05-28T21:23:24.668Z,13.52
2019-05-28T21:23:53.817Z,13.53
2019-05-28T21:24:22.712Z,13.54
2019-05-28T21:24:52.032Z,13.56
2019-05-28T21:25:20.238Z,13.56
2019-05-28T21:25:50.056Z,13.56
2019-05-28T21:26:19.363Z,13.57
2019-05-28T21:26:48.095Z,13.58
2019-05-28T21:27:17.306Z,13.57
2019-05-28T21:27:46.496Z,13.58
2019-05-28T21:28:15.323Z,13.58
2019-05-28T21:28:44.417Z,13.59
2019-05-28T21:29:12.902Z,13.59
2019-05-28T21:29:42.819Z,13.60
2019-05-28T21:30:11.769Z,13.59
2019-05-28T21:30:43.345Z,13.60
2019-05-28T21:31:11.627Z,13.60
2019-05-28T21:31:40.780Z,13.60
2019-05-28T21:32:09.652Z,13.60
2019-05-28T21:32:38.553Z,13.62
2019-05-28T21:33:07.286Z,13.62
2019-05-28T21:33:36.840Z,13.63
2019-05-28T21:34:05.526Z,13.64
2019-05-28T21:34:34.504Z,13.63
2019-05-28T21:35:04.822Z,13.63
2019-05-28T21:35:36.446Z,13.64
2019-05-28T21:36:06.012Z,13.65
2019-05-28T21:36:35.536Z,13.65
2019-05-28T21:37:05.722Z,13.64
2019-05-28T21:37:35.449Z,13.64
2019-05-28T21:38:06.580Z,13.64
2019-05-28T21:38:35.499Z,13.65
2019-05-28T21:39:05.143Z,13.64
2019-05-28T21:39:34.134Z,13.64
2019-05-28T21:40:03.731Z,13.65
2019-05-28T21:40:32.549Z,13.66
2019-05-28T21:41:01.792Z,13.66
2019-05-28T21:41:30.954Z,13.66
2019-05-28T21:42:01.394Z,13.66
2019-05-28T21:42:30.203Z,13.66
2019-05-28T21:43:06.170Z,13.67
2019-05-28T21:43:29.473Z,13.67
2019-05-28T21:44:00.099Z,13.67
2019-05-28T21:44:29.342Z,13.67
2019-05-28T21:44:58.140Z,13.68
2019-05-28T21:45:27.480Z,13.68
2019-05-28T21:45:56.451Z,13.68
2019-05-28T21:46:25.151Z,13.69
2019-05-28T21:46:54.190Z,13.70
2019-05-28T21:47:23.252Z,13.69
2019-05-28T21:47:52.521Z,13.69
2019-05-28T21:48:21.893Z,13.70
2019-05-28T21:48:50.465Z,13.68
2019-05-28T21:49:19.334Z,13.68
2019-05-28T21:49:48.163Z,13.70
2019-05-28T21:50:17.955Z,13.69
2019-05-28T21:50:46.354Z,13.69
2019-05-28T21:51:15.663Z,13.69
2019-05-28T21:51:44.999Z,13.69
2019-05-28T21:52:13.544Z,13.70
2019-05-28T21:52:42.180Z,13.68
2019-05-28T21:53:11.376Z,13.68
2019-05-28T21:53:40.271Z,13.68
2019-05-28T21:54:09.166Z,13.69
2019-05-28T21:54:37.385Z,13.68
2019-05-28T21:55:11.244Z,13.69
2019-05-28T21:55:41.747Z,13.69
2019-05-28T21:56:11.439Z,13.69
2019-05-28T21:56:40.655Z,13.69
2019-05-28T21:57:10.329Z,13.69
2019-05-28T21:57:41.566Z,13.70
2019-05-28T21:58:10.810Z,13.69
2019-05-28T21:58:39.516Z,13.70
2019-05-28T21:59:09.533Z,13.69
2019-05-28T21:59:41.231Z,13.70
2019-05-28T22:00:23.379Z,13.70
2019-05-28T22:00:57.946Z,13.70
2019-05-28T22:01:29.015Z,13.70
2019-05-28T22:01:58.147Z,13.71
2019-05-28T22:02:26.760Z,13.69
2019-05-28T22:02:58.515Z,13.70
2019-05-28T22:03:27.552Z,13.69
2019-05-28T22:03:57.372Z,13.69
2019-05-28T22:04:25.984Z,13.68
2019-05-28T22:04:57.305Z,13.69
2019-05-28T22:05:27.243Z,13.69
2019-05-28T22:05:57.880Z,13.68
2019-05-28T22:06:26.372Z,13.69
2019-05-28T22:06:55.326Z,13.68
2019-05-28T22:07:24.579Z,13.68
2019-05-28T22:07:55.294Z,13.70
2019-05-28T22:08:24.171Z,13.68
2019-05-28T22:08:53.412Z,13.69
2019-05-28T22:09:22.262Z,13.70
2019-05-28T22:09:51.982Z,13.69
2019-05-28T22:10:20.637Z,13.68
2019-05-28T22:10:50.051Z,13.68
2019-05-28T22:11:18.879Z,13.69
2019-05-28T22:11:49.587Z,13.68
2019-05-28T22:12:20.653Z,13.69
2019-05-28T22:12:49.752Z,13.69
2019-05-28T22:13:22.413Z,13.68
2019-05-28T22:13:50.041Z,13.67
2019-05-28T22:14:20.201Z,13.66
2019-05-28T22:14:49.191Z,13.66
2019-05-28T22:15:18.020Z,13.65
2019-05-28T22:15:46.982Z,13.65
2019-05-28T22:16:16.112Z,13.66
2019-05-28T22:16:44.977Z,13.66
2019-05-28T22:17:14.794Z,13.65
2019-05-28T22:17:43.985Z,13.65
2019-05-28T22:18:12.623Z,13.65
2019-05-28T22:18:41.615Z,13.65
2019-05-28T22:19:11.605Z,13.67
2019-05-28T22:19:43.212Z,13.67
2019-05-28T22:20:11.793Z,13.67
2019-05-28T22:20:40.621Z,13.66
2019-05-28T22:21:09.755Z,13.66
2019-05-28T22:21:40.812Z,13.68
2019-05-28T22:22:09.740Z,13.68
2019-05-28T22:22:38.903Z,13.67
2019-05-28T22:23:08.790Z,13.67
2019-05-28T22:23:38.491Z,13.66
2019-05-28T22:24:07.033Z,13.66
2019-05-28T22:24:36.889Z,13.66
2019-05-28T22:25:09.242Z,13.65
2019-05-28T22:25:38.503Z,13.65
2019-05-28T22:26:06.823Z,13.65
2019-05-28T22:26:35.872Z,13.64
2019-05-28T22:27:05.006Z,13.65
2019-05-28T22:27:34.393Z,13.63
2019-05-28T22:28:03.002Z,13.65
2019-05-28T22:28:32.427Z,13.64
2019-05-28T22:29:04.557Z,13.65
2019-05-28T22:29:34.730Z,13.64
2019-05-28T22:30:05.898Z,13.65
2019-05-28T22:30:35.811Z,13.64
2019-05-28T22:31:05.101Z,13.65
2019-05-28T22:31:33.963Z,13.65
2019-05-28T22:32:02.860Z,13.65
2019-05-28T22:32:33.103Z,13.65
2019-05-28T22:33:04.338Z,13.64
2019-05-28T22:33:33.986Z,13.65
2019-05-28T22:34:03.093Z,13.65
2019-05-28T22:34:32.551Z,13.65
2019-05-28T22:35:04.010Z,13.64
2019-05-28T22:35:33.256Z,13.65
2019-05-28T22:36:01.568Z,13.64
2019-05-28T22:36:30.728Z,13.64
2019-05-28T22:37:00.478Z,13.64
2019-05-28T22:37:29.421Z,13.64
2019-05-28T22:37:59.133Z,13.65
2019-05-28T22:38:28.548Z,13.65
2019-05-28T22:39:08.983Z,13.64
2019-05-28T22:39:38.353Z,13.64
2019-05-28T22:40:08.561Z,13.62
2019-05-28T22:40:38.364Z,13.62
2019-05-28T22:41:07.109Z,13.61
2019-05-28T22:41:37.743Z,13.61
2019-05-28T22:42:06.447Z,13.61
2019-05-28T22:42:36.742Z,13.61
2019-05-28T22:43:06.858Z,13.60
2019-05-28T22:43:38.221Z,13.59
2019-05-28T22:44:07.162Z,13.61
2019-05-28T22:44:36.356Z,13.59
2019-05-28T22:45:07.548Z,13.58
2019-05-28T22:45:41.890Z,13.58
2019-05-28T22:46:07.351Z,13.59
2019-05-28T22:46:37.040Z,13.58
2019-05-28T22:47:07.321Z,13.58
2019-05-28T22:47:36.644Z,13.58
2019-05-28T22:48:07.760Z,13.57
2019-05-28T22:48:36.133Z,13.58
2019-05-28T22:49:05.698Z,13.57
2019-05-28T22:49:35.243Z,13.57
2019-05-28T22:50:19.495Z,13.57
2019-05-28T22:50:36.689Z,13.56
2019-05-28T22:51:05.908Z,13.55
2019-05-28T22:51:35.237Z,13.55
2019-05-28T22:52:03.966Z,13.53
2019-05-28T22:52:34.149Z,13.53
2019-05-28T22:53:03.904Z,13.52
2019-05-28T22:53:33.852Z,13.52
2019-05-28T22:54:03.793Z,13.52
2019-05-28T22:54:33.379Z,13.51
2019-05-28T22:55:03.849Z,13.50
2019-05-28T22:55:33.344Z,13.51
2019-05-28T22:56:04.940Z,13.50
2019-05-28T22:56:32.793Z,13.49
2019-05-28T22:57:04.067Z,13.48
2019-05-28T22:57:33.752Z,13.48
2019-05-28T22:58:02.349Z,13.46
2019-05-28T22:58:31.647Z,13.45
2019-05-28T22:59:00.922Z,13.44
2019-05-28T22:59:30.046Z,13.42
2019-05-28T22:59:58.525Z,13.41
2019-05-28T23:00:27.473Z,13.40
2019-05-28T23:00:56.661Z,13.40
2019-05-28T23:01:25.741Z,13.40
2019-05-28T23:01:54.094Z,13.40
2019-05-28T23:02:24.390Z,13.39
2019-05-28T23:02:53.320Z,13.38
2019-05-28T23:03:22.580Z,13.38
2019-05-28T23:03:51.176Z,13.38
2019-05-28T23:04:20.739Z,13.37
2019-05-28T23:04:49.996Z,13.37
2019-05-28T23:05:18.754Z,13.37
2019-05-28T23:05:47.268Z,13.37
2019-05-28T23:06:16.667Z,13.37
2019-05-28T23:06:45.596Z,13.36
2019-05-28T23:07:14.857Z,13.35
2019-05-28T23:07:43.455Z,13.34
2019-05-28T23:08:12.286Z,13.32
2019-05-28T23:08:42.511Z,13.31
2019-05-28T23:09:11.597Z,13.30
2019-05-28T23:09:40.944Z,13.30
2019-05-28T23:10:10.484Z,13.30
2019-05-28T23:10:39.394Z,13.30
2019-05-28T23:11:08.224Z,13.29
2019-05-28T23:11:36.517Z,13.29
2019-05-28T23:12:06.421Z,13.29
2019-05-28T23:12:36.681Z,13.30
2019-05-28T23:13:07.181Z,13.30
2019-05-28T23:13:46.344Z,13.30
2019-05-28T23:14:08.200Z,13.31
2019-05-28T23:14:37.769Z,13.30
2019-05-28T23:15:10.637Z,13.29
2019-05-28T23:15:39.156Z,13.30
2019-05-28T23:16:08.648Z,13.30
2019-05-28T23:16:37.437Z,13.30
2019-05-28T23:17:06.362Z,13.30
2019-05-28T23:17:34.668Z,13.29
2019-05-28T23:18:04.483Z,13.29
2019-05-28T23:18:34.002Z,13.29
2019-05-28T23:19:04.442Z,13.29
2019-05-28T23:19:33.098Z,13.29
2019-05-28T23:20:03.003Z,13.28
2019-05-28T23:20:32.602Z,13.29
2019-05-28T23:21:02.699Z,13.30
2019-05-28T23:21:31.029Z,13.28
2019-05-28T23:22:00.899Z,13.28
2019-05-28T23:22:29.828Z,13.28
2019-05-28T23:22:58.807Z,13.28
2019-05-28T23:23:28.483Z,13.28
2019-05-28T23:23:58.391Z,13.29
2019-05-28T23:24:27.234Z,13.28
2019-05-28T23:24:56.355Z,13.27
2019-05-28T23:25:24.675Z,13.28
2019-05-28T23:25:53.507Z,13.28
2019-05-28T23:26:23.095Z,13.27
2019-05-28T23:26:51.943Z,13.26
2019-05-28T23:27:20.293Z,13.26
2019-05-28T23:27:49.067Z,13.25
2019-05-28T23:28:17.656Z,13.26
2019-05-28T23:28:47.656Z,13.26
2019-05-28T23:29:16.480Z,13.24
2019-05-28T23:29:45.386Z,13.25
2019-05-28T23:30:24.400Z,13.25
2019-05-28T23:30:45.194Z,13.25
2019-05-28T23:31:14.446Z,13.26
2019-05-28T23:31:43.017Z,13.24
2019-05-28T23:32:12.697Z,13.23
2019-05-28T23:32:42.091Z,13.23
2019-05-28T23:33:12.976Z,13.20
2019-05-28T23:33:41.659Z,13.19
2019-05-28T23:34:10.436Z,13.20
2019-05-28T23:34:39.625Z,13.18
2019-05-28T23:35:08.752Z,13.18
2019-05-28T23:35:37.605Z,13.16
2019-05-28T23:36:06.564Z,13.16
2019-05-28T23:36:35.547Z,13.15
2019-05-28T23:37:04.810Z,13.14
2019-05-28T23:37:34.778Z,13.14
2019-05-28T23:38:03.611Z,13.12
2019-05-28T23:38:33.992Z,13.11
2019-05-28T23:39:02.836Z,13.11
2019-05-28T23:39:32.585Z,13.10
2019-05-28T23:40:01.354Z,13.10
2019-05-28T23:40:29.946Z,13.09
2019-05-28T23:40:58.935Z,13.10
2019-05-28T23:41:27.564Z,13.09
2019-05-28T23:41:56.861Z,13.08
2019-05-28T23:42:25.713Z,13.07
2019-05-28T23:42:54.629Z,13.07
2019-05-28T23:43:23.722Z,13.07
2019-05-28T23:44:01.619Z,13.06
2019-05-28T23:44:22.895Z,13.06
2019-05-28T23:44:51.109Z,13.05
2019-05-28T23:45:20.110Z,13.05
2019-05-28T23:45:49.276Z,13.04
2019-05-28T23:46:18.424Z,13.03
2019-05-28T23:46:46.678Z,13.04
2019-05-28T23:47:15.897Z,13.03
2019-05-28T23:47:45.135Z,13.02
2019-05-28T23:48:17.877Z,13.03
2019-05-28T23:48:44.521Z,13.03
2019-05-28T23:49:14.379Z,13.03
2019-05-28T23:49:43.711Z,13.02
2019-05-28T23:50:17.551Z,13.00
2019-05-28T23:50:42.967Z,13.00
2019-05-28T23:51:12.588Z,12.99
2019-05-28T23:51:42.023Z,12.99
2019-05-28T23:52:11.021Z,12.97
2019-05-28T23:52:39.365Z,12.98
2019-05-28T23:53:09.605Z,12.97
2019-05-28T23:53:39.022Z,12.97
2019-05-28T23:54:07.865Z,12.97
2019-05-28T23:54:37.081Z,12.95
2019-05-28T23:55:07.764Z,12.95
2019-05-28T23:55:36.774Z,12.94
2019-05-28T23:56:07.601Z,12.93
2019-05-28T23:56:35.997Z,12.93
2019-05-28T23:57:05.835Z,12.93
2019-05-28T23:57:34.742Z,12.91
2019-05-28T23:58:05.656Z,12.92
2019-05-28T23:58:34.117Z,12.92
2019-05-28T23:59:02.937Z,12.92
2019-05-28T23:59:31.807Z,12.91
